sensor_id;sensor_type;location;lat;lon;timestamp;P1;durP1;ratioP1;P2;durP2;ratioP2
80229;SDS011;69540;42.136;24.742;2023-10-31T00:01:40;4.63;;;3.65;;
80229;SDS011;69540;42.136;24.742;2023-10-31T00:04:06;3.53;;;3.20;;
80229;SDS011;69540;42.136;24.742;2023-10-31T00:06:31;3.50;;;3.20;;
80229;SDS011;69540;42.136;24.742;2023-10-31T00:08:57;4.40;;;3.72;;
80229;SDS011;69540;42.136;24.742;2023-10-31T00:11:23;3.45;;;3.15;;
80229;SDS011;69540;42.136;24.742;2023-10-31T00:13:48;3.92;;;3.35;;
80229;SDS011;69540;42.136;24.742;2023-10-31T00:16:14;4.65;;;3.70;;
80229;SDS011;69540;42.136;24.742;2023-10-31T00:18:40;5.40;;;3.55;;
80229;SDS011;69540;42.136;24.742;2023-10-31T00:21:05;4.40;;;3.40;;
80229;SDS011;69540;42.136;24.742;2023-10-31T00:23:31;3.55;;;3.10;;
80229;SDS011;69540;42.136;24.742;2023-10-31T00:25:57;4.45;;;3.40;;
80229;SDS011;69540;42.136;24.742;2023-10-31T00:28:22;3.53;;;3.22;;
80229;SDS011;69540;42.136;24.742;2023-10-31T00:30:48;3.50;;;3.10;;
80229;SDS011;69540;42.136;24.742;2023-10-31T00:33:13;3.65;;;3.33;;
80229;SDS011;69540;42.136;24.742;2023-10-31T00:35:39;3.50;;;3.20;;
80229;SDS011;69540;42.136;24.742;2023-10-31T00:38:05;3.85;;;3.45;;
80229;SDS011;69540;42.136;24.742;2023-10-31T00:40:30;4.25;;;3.22;;
80229;SDS011;69540;42.136;24.742;2023-10-31T00:42:56;3.80;;;3.50;;
80229;SDS011;69540;42.136;24.742;2023-10-31T00:45:23;3.47;;;3.17;;
80229;SDS011;69540;42.136;24.742;2023-10-31T00:47:49;4.05;;;3.60;;
80229;SDS011;69540;42.136;24.742;2023-10-31T00:50:14;4.30;;;3.35;;
80229;SDS011;69540;42.136;24.742;2023-10-31T00:52:40;4.10;;;3.15;;
80229;SDS011;69540;42.136;24.742;2023-10-31T00:55:07;3.40;;;3.10;;
80229;SDS011;69540;42.136;24.742;2023-10-31T00:57:32;3.85;;;3.22;;
80229;SDS011;69540;42.136;24.742;2023-10-31T00:59:58;4.95;;;3.42;;
80229;SDS011;69540;42.136;24.742;2023-10-31T01:02:23;3.92;;;3.25;;
80229;SDS011;69540;42.136;24.742;2023-10-31T01:04:49;3.75;;;3.33;;
80229;SDS011;69540;42.136;24.742;2023-10-31T01:07:15;4.20;;;3.10;;
80229;SDS011;69540;42.136;24.742;2023-10-31T01:09:42;3.72;;;3.17;;
80229;SDS011;69540;42.136;24.742;2023-10-31T01:12:09;3.45;;;3.15;;
80229;SDS011;69540;42.136;24.742;2023-10-31T01:14:36;3.50;;;3.10;;
80229;SDS011;69540;42.136;24.742;2023-10-31T01:17:01;4.28;;;3.45;;
80229;SDS011;69540;42.136;24.742;2023-10-31T01:19:27;5.57;;;3.45;;
80229;SDS011;69540;42.136;24.742;2023-10-31T01:21:53;4.35;;;3.30;;
80229;SDS011;69540;42.136;24.742;2023-10-31T01:24:18;4.43;;;3.35;;
80229;SDS011;69540;42.136;24.742;2023-10-31T01:26:44;3.55;;;3.25;;
80229;SDS011;69540;42.136;24.742;2023-10-31T01:29:10;3.75;;;3.42;;
80229;SDS011;69540;42.136;24.742;2023-10-31T01:31:35;3.60;;;3.30;;
80229;SDS011;69540;42.136;24.742;2023-10-31T01:34:02;3.20;;;2.90;;
80229;SDS011;69540;42.136;24.742;2023-10-31T01:36:28;3.70;;;3.17;;
80229;SDS011;69540;42.136;24.742;2023-10-31T01:38:53;3.10;;;2.80;;
80229;SDS011;69540;42.136;24.742;2023-10-31T01:41:19;4.03;;;3.20;;
80229;SDS011;69540;42.136;24.742;2023-10-31T01:43:44;3.55;;;3.22;;
80229;SDS011;69540;42.136;24.742;2023-10-31T01:46:10;3.78;;;3.40;;
80229;SDS011;69540;42.136;24.742;2023-10-31T01:48:36;3.35;;;3.05;;
80229;SDS011;69540;42.136;24.742;2023-10-31T01:51:02;3.85;;;3.35;;
80229;SDS011;69540;42.136;24.742;2023-10-31T01:53:29;3.35;;;3.05;;
80229;SDS011;69540;42.136;24.742;2023-10-31T01:55:58;3.50;;;3.20;;
80229;SDS011;69540;42.136;24.742;2023-10-31T01:58:28;4.05;;;3.40;;
80229;SDS011;69540;42.136;24.742;2023-10-31T02:00:59;4.00;;;3.33;;
80229;SDS011;69540;42.136;24.742;2023-10-31T02:03:25;3.50;;;3.20;;
80229;SDS011;69540;42.136;24.742;2023-10-31T02:05:52;3.70;;;3.08;;
80229;SDS011;69540;42.136;24.742;2023-10-31T02:08:17;4.40;;;3.20;;
80229;SDS011;69540;42.136;24.742;2023-10-31T02:10:43;4.10;;;2.90;;
80229;SDS011;69540;42.136;24.742;2023-10-31T02:15:37;4.07;;;3.40;;
80229;SDS011;69540;42.136;24.742;2023-10-31T02:18:03;4.20;;;3.40;;
80229;SDS011;69540;42.136;24.742;2023-10-31T02:20:29;3.75;;;3.40;;
80229;SDS011;69540;42.136;24.742;2023-10-31T02:22:54;4.65;;;3.70;;
80229;SDS011;69540;42.136;24.742;2023-10-31T02:25:20;3.60;;;3.25;;
80229;SDS011;69540;42.136;24.742;2023-10-31T02:27:46;3.45;;;3.15;;
80229;SDS011;69540;42.136;24.742;2023-10-31T02:30:11;3.47;;;3.08;;
80229;SDS011;69540;42.136;24.742;2023-10-31T02:32:37;3.42;;;2.90;;
80229;SDS011;69540;42.136;24.742;2023-10-31T02:35:03;3.95;;;3.40;;
80229;SDS011;69540;42.136;24.742;2023-10-31T02:37:29;3.42;;;3.05;;
80229;SDS011;69540;42.136;24.742;2023-10-31T02:39:55;3.58;;;3.05;;
80229;SDS011;69540;42.136;24.742;2023-10-31T02:42:20;3.40;;;3.10;;
80229;SDS011;69540;42.136;24.742;2023-10-31T02:44:46;4.22;;;3.20;;
80229;SDS011;69540;42.136;24.742;2023-10-31T02:47:12;3.28;;;2.97;;
80229;SDS011;69540;42.136;24.742;2023-10-31T02:49:37;3.38;;;3.08;;
80229;SDS011;69540;42.136;24.742;2023-10-31T02:52:03;3.83;;;3.30;;
80229;SDS011;69540;42.136;24.742;2023-10-31T02:54:29;4.20;;;3.03;;
80229;SDS011;69540;42.136;24.742;2023-10-31T02:56:54;3.35;;;3.05;;
80229;SDS011;69540;42.136;24.742;2023-10-31T02:59:20;3.42;;;3.13;;
80229;SDS011;69540;42.136;24.742;2023-10-31T03:01:45;3.15;;;2.90;;
80229;SDS011;69540;42.136;24.742;2023-10-31T03:04:11;3.72;;;3.22;;
80229;SDS011;69540;42.136;24.742;2023-10-31T03:06:37;4.05;;;3.30;;
80229;SDS011;69540;42.136;24.742;2023-10-31T03:09:02;3.58;;;3.10;;
80229;SDS011;69540;42.136;24.742;2023-10-31T03:11:28;3.83;;;3.30;;
80229;SDS011;69540;42.136;24.742;2023-10-31T03:13:54;3.80;;;3.17;;
80229;SDS011;69540;42.136;24.742;2023-10-31T03:16:21;3.83;;;3.42;;
80229;SDS011;69540;42.136;24.742;2023-10-31T03:18:47;3.58;;;3.28;;
80229;SDS011;69540;42.136;24.742;2023-10-31T03:21:13;3.60;;;3.30;;
80229;SDS011;69540;42.136;24.742;2023-10-31T03:23:47;3.35;;;2.90;;
80229;SDS011;69540;42.136;24.742;2023-10-31T03:26:14;3.03;;;2.83;;
80229;SDS011;69540;42.136;24.742;2023-10-31T03:28:40;5.13;;;3.30;;
80229;SDS011;69540;42.136;24.742;2023-10-31T03:31:08;3.80;;;2.90;;
80229;SDS011;69540;42.136;24.742;2023-10-31T03:33:34;3.22;;;2.90;;
80229;SDS011;69540;42.136;24.742;2023-10-31T03:36:00;3.80;;;3.40;;
80229;SDS011;69540;42.136;24.742;2023-10-31T03:38:25;4.05;;;3.10;;
80229;SDS011;69540;42.136;24.742;2023-10-31T03:40:51;3.80;;;3.22;;
80229;SDS011;69540;42.136;24.742;2023-10-31T03:43:17;3.30;;;3.00;;
80229;SDS011;69540;42.136;24.742;2023-10-31T03:45:43;4.13;;;2.78;;
80229;SDS011;69540;42.136;24.742;2023-10-31T03:48:10;3.13;;;2.83;;
80229;SDS011;69540;42.136;24.742;2023-10-31T03:50:36;3.08;;;2.80;;
80229;SDS011;69540;42.136;24.742;2023-10-31T03:53:01;3.08;;;2.78;;
80229;SDS011;69540;42.136;24.742;2023-10-31T03:55:27;3.85;;;3.33;;
80229;SDS011;69540;42.136;24.742;2023-10-31T03:57:53;3.65;;;2.83;;
80229;SDS011;69540;42.136;24.742;2023-10-31T04:00:18;3.17;;;2.88;;
80229;SDS011;69540;42.136;24.742;2023-10-31T04:02:44;3.35;;;3.05;;
80229;SDS011;69540;42.136;24.742;2023-10-31T04:05:10;3.72;;;2.95;;
80229;SDS011;69540;42.136;24.742;2023-10-31T04:07:36;3.53;;;3.17;;
80229;SDS011;69540;42.136;24.742;2023-10-31T04:10:01;2.97;;;2.78;;
80229;SDS011;69540;42.136;24.742;2023-10-31T04:12:28;3.50;;;3.10;;
80229;SDS011;69540;42.136;24.742;2023-10-31T04:14:53;3.25;;;2.95;;
80229;SDS011;69540;42.136;24.742;2023-10-31T04:17:19;3.17;;;2.90;;
80229;SDS011;69540;42.136;24.742;2023-10-31T04:19:44;4.05;;;2.95;;
80229;SDS011;69540;42.136;24.742;2023-10-31T04:22:10;3.30;;;3.00;;
80229;SDS011;69540;42.136;24.742;2023-10-31T04:24:36;3.50;;;3.10;;
80229;SDS011;69540;42.136;24.742;2023-10-31T04:27:01;3.15;;;2.78;;
80229;SDS011;69540;42.136;24.742;2023-10-31T04:29:27;3.60;;;3.15;;
80229;SDS011;69540;42.136;24.742;2023-10-31T04:31:52;4.05;;;2.70;;
80229;SDS011;69540;42.136;24.742;2023-10-31T04:34:18;3.70;;;3.25;;
80229;SDS011;69540;42.136;24.742;2023-10-31T04:36:45;3.60;;;3.10;;
80229;SDS011;69540;42.136;24.742;2023-10-31T04:39:10;3.13;;;2.83;;
80229;SDS011;69540;42.136;24.742;2023-10-31T04:41:36;3.00;;;2.70;;
80229;SDS011;69540;42.136;24.742;2023-10-31T04:44:02;3.63;;;2.72;;
80229;SDS011;69540;42.136;24.742;2023-10-31T04:46:28;3.40;;;3.10;;
80229;SDS011;69540;42.136;24.742;2023-10-31T04:48:53;3.30;;;3.00;;
80229;SDS011;69540;42.136;24.742;2023-10-31T04:51:19;4.57;;;3.28;;
80229;SDS011;69540;42.136;24.742;2023-10-31T04:53:45;6.00;;;3.17;;
80229;SDS011;69540;42.136;24.742;2023-10-31T04:56:14;4.03;;;3.58;;
80229;SDS011;69540;42.136;24.742;2023-10-31T04:58:43;6.63;;;3.70;;
80229;SDS011;69540;42.136;24.742;2023-10-31T05:01:10;4.57;;;3.35;;
80229;SDS011;69540;42.136;24.742;2023-10-31T05:03:39;4.65;;;3.60;;
80229;SDS011;69540;42.136;24.742;2023-10-31T05:06:05;6.68;;;3.88;;
80229;SDS011;69540;42.136;24.742;2023-10-31T05:08:31;4.68;;;3.60;;
80229;SDS011;69540;42.136;24.742;2023-10-31T05:10:58;4.15;;;3.65;;
80229;SDS011;69540;42.136;24.742;2023-10-31T05:13:24;5.60;;;3.97;;
80229;SDS011;69540;42.136;24.742;2023-10-31T05:15:50;6.43;;;3.90;;
80229;SDS011;69540;42.136;24.742;2023-10-31T05:18:16;6.50;;;3.95;;
80229;SDS011;69540;42.136;24.742;2023-10-31T05:20:42;7.93;;;3.88;;
80229;SDS011;69540;42.136;24.742;2023-10-31T05:23:08;5.47;;;3.97;;
80229;SDS011;69540;42.136;24.742;2023-10-31T05:25:34;6.72;;;4.00;;
80229;SDS011;69540;42.136;24.742;2023-10-31T05:27:59;5.85;;;4.13;;
80229;SDS011;69540;42.136;24.742;2023-10-31T05:30:25;8.25;;;4.05;;
80229;SDS011;69540;42.136;24.742;2023-10-31T05:32:52;4.95;;;3.85;;
80229;SDS011;69540;42.136;24.742;2023-10-31T05:35:17;6.65;;;4.50;;
80229;SDS011;69540;42.136;24.742;2023-10-31T05:37:45;6.03;;;4.05;;
80229;SDS011;69540;42.136;24.742;2023-10-31T05:40:11;5.63;;;4.03;;
80229;SDS011;69540;42.136;24.742;2023-10-31T05:42:39;5.47;;;4.30;;
80229;SDS011;69540;42.136;24.742;2023-10-31T05:45:05;8.05;;;4.35;;
80229;SDS011;69540;42.136;24.742;2023-10-31T05:47:31;9.13;;;4.10;;
80229;SDS011;69540;42.136;24.742;2023-10-31T05:49:57;7.93;;;4.43;;
80229;SDS011;69540;42.136;24.742;2023-10-31T05:52:23;6.47;;;4.03;;
80229;SDS011;69540;42.136;24.742;2023-10-31T05:54:54;7.65;;;4.60;;
80229;SDS011;69540;42.136;24.742;2023-10-31T05:57:19;7.13;;;4.25;;
80229;SDS011;69540;42.136;24.742;2023-10-31T05:59:45;8.63;;;4.88;;
80229;SDS011;69540;42.136;24.742;2023-10-31T06:02:12;7.03;;;4.70;;
80229;SDS011;69540;42.136;24.742;2023-10-31T06:04:38;7.85;;;4.40;;
80229;SDS011;69540;42.136;24.742;2023-10-31T06:07:04;7.82;;;4.40;;
80229;SDS011;69540;42.136;24.742;2023-10-31T06:09:30;7.32;;;4.43;;
80229;SDS011;69540;42.136;24.742;2023-10-31T06:11:58;5.68;;;4.35;;
80229;SDS011;69540;42.136;24.742;2023-10-31T06:14:23;8.07;;;4.10;;
80229;SDS011;69540;42.136;24.742;2023-10-31T06:16:50;6.70;;;4.47;;
80229;SDS011;69540;42.136;24.742;2023-10-31T06:19:16;5.38;;;4.28;;
80229;SDS011;69540;42.136;24.742;2023-10-31T06:21:42;7.32;;;4.57;;
80229;SDS011;69540;42.136;24.742;2023-10-31T06:24:07;6.38;;;4.10;;
80229;SDS011;69540;42.136;24.742;2023-10-31T06:26:33;6.95;;;3.97;;
80229;SDS011;69540;42.136;24.742;2023-10-31T06:28:59;7.72;;;4.30;;
80229;SDS011;69540;42.136;24.742;2023-10-31T06:31:25;8.00;;;4.00;;
80229;SDS011;69540;42.136;24.742;2023-10-31T06:33:50;6.45;;;3.78;;
80229;SDS011;69540;42.136;24.742;2023-10-31T06:36:16;5.93;;;3.78;;
80229;SDS011;69540;42.136;24.742;2023-10-31T06:38:41;6.88;;;3.95;;
80229;SDS011;69540;42.136;24.742;2023-10-31T06:41:07;6.50;;;4.13;;
80229;SDS011;69540;42.136;24.742;2023-10-31T06:43:33;4.50;;;3.65;;
80229;SDS011;69540;42.136;24.742;2023-10-31T06:45:59;7.40;;;4.18;;
80229;SDS011;69540;42.136;24.742;2023-10-31T06:48:27;7.13;;;3.90;;
80229;SDS011;69540;42.136;24.742;2023-10-31T06:50:53;5.07;;;3.90;;
80229;SDS011;69540;42.136;24.742;2023-10-31T06:53:18;5.20;;;3.80;;
80229;SDS011;69540;42.136;24.742;2023-10-31T06:55:44;6.20;;;3.70;;
80229;SDS011;69540;42.136;24.742;2023-10-31T06:58:10;5.68;;;4.05;;
80229;SDS011;69540;42.136;24.742;2023-10-31T07:00:35;5.78;;;3.97;;
80229;SDS011;69540;42.136;24.742;2023-10-31T07:03:02;4.65;;;3.60;;
80229;SDS011;69540;42.136;24.742;2023-10-31T07:05:31;6.38;;;3.90;;
80229;SDS011;69540;42.136;24.742;2023-10-31T07:07:57;8.13;;;4.50;;
80229;SDS011;69540;42.136;24.742;2023-10-31T07:10:23;4.43;;;3.63;;
80229;SDS011;69540;42.136;24.742;2023-10-31T07:12:48;5.63;;;4.05;;
80229;SDS011;69540;42.136;24.742;2023-10-31T07:15:14;6.50;;;3.97;;
80229;SDS011;69540;42.136;24.742;2023-10-31T07:17:40;7.28;;;4.05;;
80229;SDS011;69540;42.136;24.742;2023-10-31T07:20:05;4.55;;;4.00;;
80229;SDS011;69540;42.136;24.742;2023-10-31T07:22:32;5.68;;;4.00;;
80229;SDS011;69540;42.136;24.742;2023-10-31T07:24:59;6.30;;;4.00;;
80229;SDS011;69540;42.136;24.742;2023-10-31T07:27:27;6.20;;;3.72;;
80229;SDS011;69540;42.136;24.742;2023-10-31T07:29:53;4.93;;;3.55;;
80229;SDS011;69540;42.136;24.742;2023-10-31T07:32:19;4.38;;;3.53;;
80229;SDS011;69540;42.136;24.742;2023-10-31T07:34:44;5.85;;;3.60;;
80229;SDS011;69540;42.136;24.742;2023-10-31T07:37:10;5.88;;;3.53;;
80229;SDS011;69540;42.136;24.742;2023-10-31T07:39:36;4.22;;;3.60;;
80229;SDS011;69540;42.136;24.742;2023-10-31T07:42:01;8.90;;;3.67;;
80229;SDS011;69540;42.136;24.742;2023-10-31T07:44:28;6.32;;;3.50;;
80229;SDS011;69540;42.136;24.742;2023-10-31T07:46:54;10.25;;;3.97;;
80229;SDS011;69540;42.136;24.742;2023-10-31T07:49:20;6.40;;;3.85;;
80229;SDS011;69540;42.136;24.742;2023-10-31T07:51:45;5.00;;;3.85;;
80229;SDS011;69540;42.136;24.742;2023-10-31T07:54:13;4.80;;;3.67;;
80229;SDS011;69540;42.136;24.742;2023-10-31T07:56:39;5.65;;;3.53;;
80229;SDS011;69540;42.136;24.742;2023-10-31T07:59:05;7.63;;;4.05;;
80229;SDS011;69540;42.136;24.742;2023-10-31T08:01:32;5.15;;;3.92;;
80229;SDS011;69540;42.136;24.742;2023-10-31T08:03:58;6.50;;;3.90;;
80229;SDS011;69540;42.136;24.742;2023-10-31T08:06:24;5.30;;;3.35;;
80229;SDS011;69540;42.136;24.742;2023-10-31T08:08:50;6.82;;;3.50;;
80229;SDS011;69540;42.136;24.742;2023-10-31T08:11:15;7.72;;;3.80;;
80229;SDS011;69540;42.136;24.742;2023-10-31T08:13:41;6.03;;;3.58;;
80229;SDS011;69540;42.136;24.742;2023-10-31T08:16:07;6.40;;;3.67;;
80229;SDS011;69540;42.136;24.742;2023-10-31T08:18:33;5.50;;;3.63;;
80229;SDS011;69540;42.136;24.742;2023-10-31T08:20:59;4.68;;;3.60;;
80229;SDS011;69540;42.136;24.742;2023-10-31T08:23:25;7.32;;;3.83;;
80229;SDS011;69540;42.136;24.742;2023-10-31T08:25:51;8.48;;;3.80;;
80229;SDS011;69540;42.136;24.742;2023-10-31T08:28:16;6.43;;;3.53;;
80229;SDS011;69540;42.136;24.742;2023-10-31T08:30:42;4.97;;;3.58;;
80229;SDS011;69540;42.136;24.742;2023-10-31T08:33:08;6.13;;;3.65;;
80229;SDS011;69540;42.136;24.742;2023-10-31T08:35:34;7.32;;;3.40;;
80229;SDS011;69540;42.136;24.742;2023-10-31T08:38:00;3.95;;;3.50;;
80229;SDS011;69540;42.136;24.742;2023-10-31T08:40:25;5.10;;;3.72;;
80229;SDS011;69540;42.136;24.742;2023-10-31T08:42:51;8.77;;;3.92;;
80229;SDS011;69540;42.136;24.742;2023-10-31T08:45:17;8.02;;;3.92;;
80229;SDS011;69540;42.136;24.742;2023-10-31T08:47:43;5.15;;;3.80;;
80229;SDS011;69540;42.136;24.742;2023-10-31T08:50:08;6.45;;;3.53;;
80229;SDS011;69540;42.136;24.742;2023-10-31T08:52:36;4.82;;;3.55;;
80229;SDS011;69540;42.136;24.742;2023-10-31T08:55:02;4.45;;;3.47;;
80229;SDS011;69540;42.136;24.742;2023-10-31T08:57:28;6.10;;;3.60;;
80229;SDS011;69540;42.136;24.742;2023-10-31T08:59:54;7.47;;;4.05;;
80229;SDS011;69540;42.136;24.742;2023-10-31T09:02:20;6.05;;;3.80;;
80229;SDS011;69540;42.136;24.742;2023-10-31T09:04:46;8.63;;;3.78;;
80229;SDS011;69540;42.136;24.742;2023-10-31T09:07:11;5.40;;;3.70;;
80229;SDS011;69540;42.136;24.742;2023-10-31T09:09:37;5.32;;;3.40;;
80229;SDS011;69540;42.136;24.742;2023-10-31T09:12:03;7.88;;;3.70;;
80229;SDS011;69540;42.136;24.742;2023-10-31T09:14:29;11.48;;;3.80;;
80229;SDS011;69540;42.136;24.742;2023-10-31T09:16:54;10.25;;;3.50;;
80229;SDS011;69540;42.136;24.742;2023-10-31T09:19:20;6.75;;;3.70;;
80229;SDS011;69540;42.136;24.742;2023-10-31T09:21:45;4.88;;;3.65;;
80229;SDS011;69540;42.136;24.742;2023-10-31T09:24:11;6.38;;;3.28;;
80229;SDS011;69540;42.136;24.742;2023-10-31T09:26:37;8.95;;;3.30;;
80229;SDS011;69540;42.136;24.742;2023-10-31T09:29:08;16.48;;;3.90;;
80229;SDS011;69540;42.136;24.742;2023-10-31T09:31:35;7.32;;;3.60;;
80229;SDS011;69540;42.136;24.742;2023-10-31T09:34:00;7.03;;;3.35;;
80229;SDS011;69540;42.136;24.742;2023-10-31T09:36:28;6.03;;;3.13;;
80229;SDS011;69540;42.136;24.742;2023-10-31T09:38:56;4.60;;;3.45;;
80229;SDS011;69540;42.136;24.742;2023-10-31T09:41:22;8.50;;;3.60;;
80229;SDS011;69540;42.136;24.742;2023-10-31T09:43:48;6.43;;;3.53;;
80229;SDS011;69540;42.136;24.742;2023-10-31T09:46:15;8.60;;;3.85;;
80229;SDS011;69540;42.136;24.742;2023-10-31T09:48:42;5.45;;;3.53;;
80229;SDS011;69540;42.136;24.742;2023-10-31T09:51:08;6.20;;;3.50;;
80229;SDS011;69540;42.136;24.742;2023-10-31T09:53:37;6.93;;;3.70;;
80229;SDS011;69540;42.136;24.742;2023-10-31T09:56:06;8.77;;;3.25;;
80229;SDS011;69540;42.136;24.742;2023-10-31T09:58:32;5.07;;;3.35;;
80229;SDS011;69540;42.136;24.742;2023-10-31T10:00:59;7.60;;;3.20;;
80229;SDS011;69540;42.136;24.742;2023-10-31T10:03:25;6.18;;;3.33;;
80229;SDS011;69540;42.136;24.742;2023-10-31T10:05:51;3.97;;;3.13;;
80229;SDS011;69540;42.136;24.742;2023-10-31T10:08:17;6.15;;;3.58;;
80229;SDS011;69540;42.136;24.742;2023-10-31T10:10:44;5.60;;;3.08;;
80229;SDS011;69540;42.136;24.742;2023-10-31T10:13:10;4.47;;;3.15;;
80229;SDS011;69540;42.136;24.742;2023-10-31T10:15:47;4.97;;;3.00;;
80229;SDS011;69540;42.136;24.742;2023-10-31T10:18:27;4.30;;;3.15;;
80229;SDS011;69540;42.136;24.742;2023-10-31T10:20:54;4.70;;;2.83;;
80229;SDS011;69540;42.136;24.742;2023-10-31T10:23:24;5.00;;;3.22;;
80229;SDS011;69540;42.136;24.742;2023-10-31T10:25:53;3.55;;;3.00;;
80229;SDS011;69540;42.136;24.742;2023-10-31T10:28:20;4.28;;;3.00;;
80229;SDS011;69540;42.136;24.742;2023-10-31T10:30:46;3.30;;;3.00;;
80229;SDS011;69540;42.136;24.742;2023-10-31T10:33:13;4.43;;;3.03;;
80229;SDS011;69540;42.136;24.742;2023-10-31T10:35:39;3.58;;;3.25;;
80229;SDS011;69540;42.136;24.742;2023-10-31T10:38:06;4.32;;;3.30;;
80229;SDS011;69540;42.136;24.742;2023-10-31T10:40:45;4.25;;;3.22;;
80229;SDS011;69540;42.136;24.742;2023-10-31T10:43:23;4.60;;;3.28;;
80229;SDS011;69540;42.136;24.742;2023-10-31T10:45:54;5.40;;;3.28;;
80229;SDS011;69540;42.136;24.742;2023-10-31T10:48:26;5.75;;;3.35;;
80229;SDS011;69540;42.136;24.742;2023-10-31T10:53:39;5.93;;;3.38;;
80229;SDS011;69540;42.136;24.742;2023-10-31T10:56:22;6.65;;;3.13;;
80229;SDS011;69540;42.136;24.742;2023-10-31T10:59:54;6.07;;;3.08;;
80229;SDS011;69540;42.136;24.742;2023-10-31T11:02:08;4.22;;;2.75;;
80229;SDS011;69540;42.136;24.742;2023-10-31T11:04:36;5.30;;;3.13;;
80229;SDS011;69540;42.136;24.742;2023-10-31T11:07:03;4.28;;;3.05;;
80229;SDS011;69540;42.136;24.742;2023-10-31T11:09:30;5.03;;;3.10;;
80229;SDS011;69540;42.136;24.742;2023-10-31T11:11:56;4.13;;;3.25;;
80229;SDS011;69540;42.136;24.742;2023-10-31T11:14:23;3.72;;;3.00;;
80229;SDS011;69540;42.136;24.742;2023-10-31T11:16:52;5.53;;;2.85;;
80229;SDS011;69540;42.136;24.742;2023-10-31T11:19:20;5.93;;;3.13;;
80229;SDS011;69540;42.136;24.742;2023-10-31T11:21:57;6.43;;;2.95;;
80229;SDS011;69540;42.136;24.742;2023-10-31T11:24:36;5.10;;;3.20;;
80229;SDS011;69540;42.136;24.742;2023-10-31T11:27:03;5.90;;;3.20;;
80229;SDS011;69540;42.136;24.742;2023-10-31T11:29:31;4.55;;;2.85;;
80229;SDS011;69540;42.136;24.742;2023-10-31T11:31:57;3.17;;;2.83;;
80229;SDS011;69540;42.136;24.742;2023-10-31T11:34:23;4.03;;;3.05;;
80229;SDS011;69540;42.136;24.742;2023-10-31T11:36:51;3.63;;;2.92;;
80229;SDS011;69540;42.136;24.742;2023-10-31T11:39:20;3.80;;;2.90;;
80229;SDS011;69540;42.136;24.742;2023-10-31T11:41:53;3.92;;;3.13;;
80229;SDS011;69540;42.136;24.742;2023-10-31T11:44:25;4.18;;;2.70;;
80229;SDS011;69540;42.136;24.742;2023-10-31T11:46:52;3.15;;;2.85;;
80229;SDS011;69540;42.136;24.742;2023-10-31T11:49:40;4.70;;;2.95;;
80229;SDS011;69540;42.136;24.742;2023-10-31T11:52:16;4.00;;;2.78;;
80229;SDS011;69540;42.136;24.742;2023-10-31T11:54:42;4.82;;;2.90;;
80229;SDS011;69540;42.136;24.742;2023-10-31T11:57:08;3.10;;;2.80;;
80229;SDS011;69540;42.136;24.742;2023-10-31T11:59:35;3.75;;;3.03;;
80229;SDS011;69540;42.136;24.742;2023-10-31T12:02:11;3.38;;;3.08;;
80229;SDS011;69540;42.136;24.742;2023-10-31T12:04:39;4.97;;;2.92;;
80229;SDS011;69540;42.136;24.742;2023-10-31T12:07:04;4.53;;;2.88;;
80229;SDS011;69540;42.136;24.742;2023-10-31T12:09:30;3.15;;;2.65;;
80229;SDS011;69540;42.136;24.742;2023-10-31T12:11:56;4.25;;;3.00;;
80229;SDS011;69540;42.136;24.742;2023-10-31T12:14:22;5.43;;;3.10;;
80229;SDS011;69540;42.136;24.742;2023-10-31T12:16:47;4.93;;;3.30;;
80229;SDS011;69540;42.136;24.742;2023-10-31T12:19:13;5.07;;;3.17;;
80229;SDS011;69540;42.136;24.742;2023-10-31T12:24:09;3.30;;;2.92;;
80229;SDS011;69540;42.136;24.742;2023-10-31T12:26:36;3.50;;;3.20;;
80229;SDS011;69540;42.136;24.742;2023-10-31T12:29:06;3.33;;;3.03;;
80229;SDS011;69540;42.136;24.742;2023-10-31T12:31:41;6.07;;;3.42;;
80229;SDS011;69540;42.136;24.742;2023-10-31T12:34:18;7.07;;;3.42;;
80229;SDS011;69540;42.136;24.742;2023-10-31T12:36:48;9.48;;;3.58;;
80229;SDS011;69540;42.136;24.742;2023-10-31T12:39:16;6.00;;;3.20;;
80229;SDS011;69540;42.136;24.742;2023-10-31T12:41:45;5.85;;;3.42;;
80229;SDS011;69540;42.136;24.742;2023-10-31T12:44:12;5.65;;;3.35;;
80229;SDS011;69540;42.136;24.742;2023-10-31T12:46:42;3.65;;;3.03;;
80229;SDS011;69540;42.136;24.742;2023-10-31T12:49:11;7.88;;;3.42;;
80229;SDS011;69540;42.136;24.742;2023-10-31T12:54:32;7.32;;;3.40;;
80229;SDS011;69540;42.136;24.742;2023-10-31T12:57:03;6.90;;;3.60;;
80229;SDS011;69540;42.136;24.742;2023-10-31T12:59:31;4.20;;;3.33;;
80229;SDS011;69540;42.136;24.742;2023-10-31T13:01:57;6.60;;;3.60;;
80229;SDS011;69540;42.136;24.742;2023-10-31T13:04:27;5.25;;;3.50;;
80229;SDS011;69540;42.136;24.742;2023-10-31T13:09:29;9.88;;;3.60;;
80229;SDS011;69540;42.136;24.742;2023-10-31T13:12:02;9.20;;;3.70;;
80229;SDS011;69540;42.136;24.742;2023-10-31T13:14:29;6.63;;;3.38;;
80229;SDS011;69540;42.136;24.742;2023-10-31T13:16:55;7.18;;;3.63;;
80229;SDS011;69540;42.136;24.742;2023-10-31T13:19:20;4.22;;;3.40;;
80229;SDS011;69540;42.136;24.742;2023-10-31T13:21:47;6.20;;;3.42;;
80229;SDS011;69540;42.136;24.742;2023-10-31T13:24:13;7.43;;;3.60;;
80229;SDS011;69540;42.136;24.742;2023-10-31T13:26:38;7.93;;;3.50;;
80229;SDS011;69540;42.136;24.742;2023-10-31T13:29:04;5.40;;;3.30;;
80229;SDS011;69540;42.136;24.742;2023-10-31T13:31:29;5.10;;;3.25;;
80229;SDS011;69540;42.136;24.742;2023-10-31T13:33:55;8.15;;;3.58;;
80229;SDS011;69540;42.136;24.742;2023-10-31T13:36:21;7.60;;;3.47;;
80229;SDS011;69540;42.136;24.742;2023-10-31T13:38:47;7.30;;;3.60;;
80229;SDS011;69540;42.136;24.742;2023-10-31T13:41:13;6.43;;;3.83;;
80229;SDS011;69540;42.136;24.742;2023-10-31T13:43:39;5.30;;;3.70;;
80229;SDS011;69540;42.136;24.742;2023-10-31T13:46:05;8.52;;;3.63;;
80229;SDS011;69540;42.136;24.742;2023-10-31T13:48:31;5.25;;;3.38;;
80229;SDS011;69540;42.136;24.742;2023-10-31T13:50:57;5.43;;;3.55;;
80229;SDS011;69540;42.136;24.742;2023-10-31T13:53:22;6.22;;;3.60;;
80229;SDS011;69540;42.136;24.742;2023-10-31T13:55:48;4.57;;;3.50;;
80229;SDS011;69540;42.136;24.742;2023-10-31T13:58:14;7.60;;;3.45;;
80229;SDS011;69540;42.136;24.742;2023-10-31T14:00:39;6.18;;;3.38;;
80229;SDS011;69540;42.136;24.742;2023-10-31T14:03:05;6.90;;;3.53;;
80229;SDS011;69540;42.136;24.742;2023-10-31T14:05:31;4.38;;;3.58;;
80229;SDS011;69540;42.136;24.742;2023-10-31T14:07:56;5.28;;;3.30;;
80229;SDS011;69540;42.136;24.742;2023-10-31T14:10:23;5.47;;;3.88;;
80229;SDS011;69540;42.136;24.742;2023-10-31T14:12:49;5.60;;;3.60;;
80229;SDS011;69540;42.136;24.742;2023-10-31T14:15:15;5.43;;;3.50;;
80229;SDS011;69540;42.136;24.742;2023-10-31T14:17:41;5.70;;;3.65;;
80229;SDS011;69540;42.136;24.742;2023-10-31T14:20:07;4.18;;;3.30;;
80229;SDS011;69540;42.136;24.742;2023-10-31T14:22:33;4.38;;;3.42;;
80229;SDS011;69540;42.136;24.742;2023-10-31T14:24:58;5.85;;;3.70;;
80229;SDS011;69540;42.136;24.742;2023-10-31T14:27:24;6.43;;;3.88;;
80229;SDS011;69540;42.136;24.742;2023-10-31T14:29:50;7.53;;;3.30;;
80229;SDS011;69540;42.136;24.742;2023-10-31T14:32:17;5.13;;;3.80;;
80229;SDS011;69540;42.136;24.742;2023-10-31T14:34:43;6.40;;;3.60;;
80229;SDS011;69540;42.136;24.742;2023-10-31T14:37:08;6.18;;;3.63;;
80229;SDS011;69540;42.136;24.742;2023-10-31T14:39:34;3.50;;;3.20;;
80229;SDS011;69540;42.136;24.742;2023-10-31T14:42:00;5.20;;;3.47;;
80229;SDS011;69540;42.136;24.742;2023-10-31T14:44:26;4.47;;;3.42;;